Arboles, CO (81121)

4:14 AM MDT on September 19, 2014 (GMT -0600)
RAWS ALBINO CANYON NM US | Change Station
CLOSE
Current Station
Personal Weather Station
Location: Navajo Dam, NM
Elevation: 7172 ft
Nearby Weather Stations

Elev 7172 ft 36.98 °N, 107.63 °W | Updated 48 minutes ago

Clear
Clear
57 °F
Feels Like 57 °F
N
4
Wind Variable Wind from East
Gusts 7.0 mph

Today
High -- | Low -- °F
--% Chance of Precip.
Yesterday
High -- | Low -- °F
Precip. -- in
6:55 AM 7:11 PM
Waning Crescent, 20% visible
Pressure 29.90 in
Visibility 10.0 miles
Clouds Clear
Dew Point 45 °F
Humidity 63%
Rainfall 0.00 in
Snow Depth 0 in , 0 in , 0 in
UV 0 out of 12
Pollen 6.30 out of 12
Air Quality Not available.
Flu Activity Not available.
METAR KDRO 190953Z AUTO 00000KT 10SM CLR 10/05 A3014 RMK AO2 SLP123 T01000050

More Conditions Fewer Conditions

Pressure 29.90 in
Visibility 10.0 miles
Clouds Clear
Dew Point 45 °F
Humidity 63%
Rainfall 0.00 in
Snow Depth 0 in , 0 in , 0 in
UV 0 out of 12
Pollen 6.30 out of 12
Air Quality Not available.
Flu Activity Not available.
METAR KDRO 190953Z AUTO 00000KT 10SM CLR 10/05 A3014 RMK AO2 SLP123 T01000050

More Conditions Fewer Conditions

10-Day Weather Forecast

Almanac

Astronomy

Sep. 19, 2014 Rise Set
Actual Time 6:55 AM MDT 7:11 PM MDT
Civil Twilight 6:29 AM MDT 7:37 PM MDT
Nautical Twilight 5:58 AM MDT 8:07 PM MDT
Astronomical Twilight 5:28 AM MDT 8:38 PM MDT
Moon 2:48 AM MDT 4:37 PM MDT
Length of Visible Light 13h 07m
Length of Day
12h 15m
Tomorrow will be 2m 21s shorter.
Waning Crescent, 20% of the Moon is Illuminated
Today
Waning Crescent
Sep 24
New
Oct 1
First Quarter
Oct 8
Full
Oct 15
Last Quarter

Today's Extremes

State Highs State Lows

Community

WunderPhotos

Upload Photos

1,754,583 photos uploaded!

Nearby

Snow Depth

Station Depth Elevation
Lost Dog 0 in 9320 ft
Buffalo Park 0 in 9240 ft
Michigan Creek 0 in 10600 ft
Berthoud Summit 1 in 11300 ft
Slumgullion 0 in 11440 ft

Earthquake Activity

City Distance Mag. Time & Date
No recent earthquake activity has been reported nearby.
Minimum magnitude displayed is 2.5.

Coastal Water Temperatures

Place Temperature
No Stations Reporting

Nearby Weather Stations